Latest Coastal Weather Observations for Coolangatta

IDQ60701

Issued at 7:32 pm EST Saturday 2 July 2016 (issued every 10 minutes, with the page automatically refreshed every 10 minutes)

About coastal observations | Map of coastal stations | Coastal observations for QLD | Marine services | Other Formats
Station Details ID: 040717 Name: COOLANGATTA Lat: -28.17 Lon: 153.51 Height: 4.0 m
Data from the previous 72 hours. | See also: Recent months at Coolangatta
Date/Time
EST
Temp
°C
Wind Pressure Rain since
9am
mm
Weather Cloud Vis
km
Sea
Height
m
Swell
Dir  Spd
kts
Gust
kts
hPa Trend Height
m
Period
s
Dir
02/07:30pm 10.8 WSW 7 7 1024.4 - 0.0 - - 10 - - - -
02/07:00pm 11.6 WSW 6 7 1024.2 - 0.0 - - 10 - - - -
02/06:30pm 11.5 WSW 5 7 1024.0 - 0.0 - - 10 - - - -
02/06:00pm 12.5 SW 5 6 1023.7 - 0.0 - - 10 - - - -
02/05:30pm 13.1 S 3 4 1023.6 - 0.0 - - 10 - - - -
02/05:00pm 15.0 SSE 5 6 1023.2 - 0.0 - - 10 - - - -
02/04:30pm 16.9 SSE 7 9 1023.1 - 0.0 - - 10 - - - -
02/04:00pm 18.0 SE 9 11 1023.1 - 0.0 - - 10 - - - -
02/03:30pm 18.7 SE 9 12 1022.8 - 0.0 - - 10 - - - -
02/03:00pm 18.8 SE 10 14 1022.5 - 0.0 - - 10 - - - -
02/02:30pm 19.7 SE 10 14 1022.4 - 0.0 - - 10 - - - -
02/02:00pm 19.1 SE 11 14 1022.4 - 0.0 - - 10 - - - -
02/01:30pm 19.5 SE 8 16 1022.5 - 0.0 - - 10 - - - -
02/01:00pm 19.2 SSW 6 9 1022.7 - 0.0 - - 10 - - - -
02/12:30pm 18.8 SSW 8 11 1023.1 - 0.0 - - 10 - - - -
02/12:00pm 18.9 S 8 11 1023.3 - 0.0 - - 10 - - - -
02/11:30am 18.6 S 9 12 1023.8 - 0.0 - - 10 - - - -
02/11:00am 18.7 S 9 12 1024.1 - 0.0 - - 10 - - - -
02/10:30am 18.1 SSW 7 11 1024.3 - 0.0 - - 10 - - - -
02/10:00am 17.2 SSW 9 13 1024.5 - 0.0 - - 10 - - - -
02/09:30am 16.6 SSW 8 12 1024.5 - 0.0 - - 10 - - - -
02/09:00am 15.9 SSW 7 11 1024.5 - 0.0 - - 10 - - - -
02/08:30am 14.9 SSW 6 8 1024.2 - 0.0 - - 10 - - - -
02/08:00am 13.8 SSW 5 7 1023.8 - 0.0 - - 10 - - - -
02/07:30am 12.5 SW 5 7 1023.5 - 0.0 - - 10 - - - -
02/07:00am 11.3 SW 5 6 1023.2 - 0.0 - - 10 - - - -
02/06:30am 10.3 SSW 5 6 1022.8 - 0.0 - - 10 - - - -
02/06:00am 9.2 SSW 5 9 1022.4 - 0.0 - - 10 - - - -
02/05:30am 7.8 S 5 7 1022.0 - 0.0 - - 10 - - - -
02/05:00am 7.5 SSE 4 6 1021.8 - 0.0 - - 10 - - - -
02/04:30am 5.1 S 5 7 1021.4 - 0.0 - - 10 - - - -
02/04:00am 5.6 S 4 6 1021.2 - 0.0 - - 10 - - - -
02/03:30am 5.4 SW 3 4 1021.2 - 0.0 - - 10 - - - -
02/03:00am 5.9 CALM 0 3 1021.1 - 0.0 - - 10 - - - -
02/02:30am 6.9 WSW 1 4 1021.1 - 0.0 - - 10 - - - -
02/02:00am 6.6 WSW 4 7 1021.1 - 0.0 - - 10 - - - -
02/01:30am 7.4 SW 2 4 1021.2 - 0.0 - - 10 - - - -
02/01:00am 6.2 SW 3 5 1021.1 - 0.0 - - 10 - - - -
02/12:30am 6.8 W 3 4 1021.0 - 0.0 - - 10 - - - -
02/12:00am 6.6 CALM 0 0 1020.8 - 0.0 - - 10 - - - -
 
Date/Time
EST
Temp
°C
Wind Pressure Rain since
9am
mm
Weather Cloud Vis
km
Sea
Height
m
Swell
Dir  Spd
kts
Gust
kts
hPa Trend Height
m
Period
s
Dir
01/11:30pm 7.3 CALM 0 0 1020.8 - 0.0 - - 10 - - - -
01/11:00pm 7.9 WSW 3 4 1020.6 - 0.0 - - 10 - - - -
01/10:30pm 9.0 WSW 6 6 1020.5 - 0.0 - - 10 - - - -
01/10:00pm 9.8 WSW 7 8 1020.4 - 0.0 - - 10 - - - -
01/09:30pm 10.6 WSW 7 9 1020.4 - 0.0 - - 10 - - - -
01/09:00pm 10.6 WSW 7 9 1020.4 - 0.0 - - 10 - - - -
01/08:30pm 11.2 WSW 7 9 1020.2 - 0.0 - - 10 - - - -
01/08:00pm 11.0 WSW 6 9 1019.7 - 0.0 - - 10 - - - -
01/07:30pm 10.6 WSW 6 7 1019.4 - 0.0 - - 10 - - - -
01/07:00pm 11.7 WSW 4 5 1019.1 - 0.0 - - 10 - - - -
01/06:30pm 13.0 CALM 0 0 1018.8 - 0.0 - - 10 - - - -
01/06:00pm 14.0 W 4 5 1017.9 - 0.0 - - 10 - - - -
01/05:30pm 14.8 WSW 5 7 1017.5 - 0.0 - - 10 - - - -
01/05:00pm 17.4 WNW 5 8 1017.0 - 0.0 - - 10 - - - -
01/04:30pm 20.0 NW 4 6 1016.5 - 0.0 - - 10 - - - -
01/04:00pm 21.1 NW 6 9 1016.4 - 0.0 - - 10 - - - -
01/03:30pm 21.3 WNW 7 12 1016.5 - 0.0 - - 10 - - - -
01/03:00pm 21.7 WNW 7 10 1016.6 - 0.0 - - 10 - - - -
01/02:30pm 21.5 WNW 10 14 1016.5 - 0.0 - - 10 - - - -
01/02:00pm 21.4 WNW 13 19 1016.5 - 0.0 - - 10 - - - -
01/01:30pm 21.6 W 11 17 1016.3 - 0.0 - - 10 - - - -
01/01:00pm 21.0 NE 5 7 1016.5 - 0.0 - - 10 - - - -
01/12:30pm 19.9 NNE 6 9 1016.8 - 0.0 - - 10 - - - -
01/12:00pm 20.2 ENE 6 10 1017.3 - 0.0 - - 10 - - - -
01/11:30am 19.8 ENE 8 10 1018.1 - 0.0 - - 10 - - - -
01/11:00am 19.9 ENE 7 10 1018.7 - 0.0 - - 10 - - - -
01/10:30am 19.0 SW 4 6 1019.2 - 0.0 - - 10 - - - -
01/10:00am 18.5 S 4 6 1019.5 - 0.0 - - 10 - - - -
01/09:30am 18.1 W 5 8 1019.4 - 0.0 - - 10 - - - -
01/09:00am 17.3 N 3 6 1019.5 - 0.0 - - 10 - - - -
01/08:30am 16.2 NE 4 5 1019.7 - 0.0 - - 10 - - - -
01/08:00am 14.0 SW 2 4 1019.5 - 0.0 - - 10 - - - -
01/07:30am 12.0 CALM 0 0 1019.4 - 0.0 - - 10 - - - -
01/07:00am 10.1 S 3 5 1019.1 - 0.0 - - 10 - - - -
01/06:30am 11.2 WSW 4 5 1018.8 - 0.0 - - 10 - - - -
01/06:00am 11.8 WSW 4 6 1018.5 - 0.0 - - 10 - - - -
01/05:30am 12.1 W 6 7 1018.3 - 0.0 - - 10 - - - -
01/05:00am 11.4 W 4 4 1018.3 - 0.0 - - 10 - - - -
01/04:30am 12.6 WNW 6 7 1018.2 - 0.0 - - 10 - - - -
01/04:00am 10.9 WNW 6 8 1018.2 - 0.0 - - 10 - - - -
01/03:30am 11.6 WSW 2 5 1018.5 - 0.0 - Partly cloudy 10 - - - -
01/03:29am 11.5 WSW 1 5 1018.4 - 0.0 - Partly cloudy 10 - - - -
01/03:00am 11.8 CALM 0 0 1018.5 - 0.0 - Cloudy 2 - - - -
01/02:56am 11.4 CALM 0 0 1018.4 - 0.0 - Partly cloudy 5 - - - -
01/02:30am 11.8 CALM 0 0 1018.6 - 0.0 - Partly cloudy 10 - - - -
01/02:00am 11.5 CALM 0 0 1018.9 - 0.0 - Partly cloudy 10 - - - -
01/01:34am 11.7 CALM 0 0 1018.9 - 0.0 - - 6 - - - -
01/01:30am 11.9 CALM 0 0 1019.0 - 0.0 - Partly cloudy 10 - - - -
01/01:00am 12.4 CALM 0 0 1019.0 - 0.0 - - 10 - - - -
01/12:30am 13.5 CALM 0 0 1019.2 - 0.0 - Partly cloudy 10 - - - -
01/12:00am 13.9 SW 1 5 1019.3 - 0.0 - Cloudy 10 - - - -
 
Date/Time
EST
Temp
°C
Wind Pressure Rain since
9am
mm
Weather Cloud Vis
km
Sea
Height
m
Swell
Dir  Spd
kts
Gust
kts
hPa Trend Height
m
Period
s
Dir
30/11:30pm 13.7 CALM 0 2 1019.4 - 0.0 - Partly cloudy 10 - - - -
30/11:00pm 13.6 CALM 0 0 1019.4 - 0.0 - Partly cloudy 10 - - - -
30/10:30pm 13.9 CALM 0 0 1019.7 - 0.0 - Partly cloudy 10 - - - -
30/10:27pm 13.9 CALM 0 0 1019.6 - 0.0 - Partly cloudy 10 - - - -
30/10:06pm 13.9 W 1 3 1019.9 - 0.0 - Partly cloudy 5 - - - -
30/10:00pm 13.8 W 3 4 1019.8 - 0.0 - Partly cloudy 10 - - - -
30/09:30pm 13.4 W 4 5 1020.0 - 0.0 - - 10 - - - -
30/09:00pm 13.8 WSW 3 4 1020.1 - 0.0 - Cloudy 10 - - - -
30/08:30pm 13.8 W 4 5 1020.6 - 0.0 - - 10 - - - -
30/08:00pm 14.0 WNW 2 3 1020.7 - 0.0 - - 10 - - - -
30/07:30pm 14.3 WSW 5 6 1020.8 - 0.0 - Partly cloudy 10 - - - -
30/07:00pm 14.8 WSW 6 8 1020.6 - 0.0 - Partly cloudy 10 - - - -
30/06:30pm 15.3 W 4 6 1020.4 - 0.0 - Partly cloudy 10 - - - -
30/06:00pm 17.4 N 5 9 1020.2 - 0.0 - Partly cloudy 10 - - - -
30/05:30pm 18.1 N 9 12 1019.7 - 0.0 - - 10 - - - -
30/05:00pm 18.2 N 10 13 1019.7 - 0.0 - - 10 - - - -
30/04:30pm 18.5 NNE 7 10 1019.8 - 0.0 - - 10 - - - -
30/04:00pm 18.8 NE 8 9 1020.0 - 0.0 - - 10 - - - -
30/03:30pm 18.9 NE 7 11 1020.0 - 0.0 - - 10 - - - -
30/03:00pm 19.0 NE 8 11 1020.1 - 0.0 - - 10 - - - -
30/02:30pm 19.4 NE 8 10 1020.4 - 0.0 - - 10 - - - -
30/02:00pm 19.4 NE 8 10 1020.5 - 0.0 - - 10 - - - -
30/01:30pm 19.5 NE 7 9 1020.9 - 0.0 - - 10 - - - -
30/01:00pm 19.5 NE 7 9 1021.4 - 0.0 - - 10 - - - -
30/12:30pm 19.7 NNE 7 9 1021.9 - 0.0 - - 10 - - - -
30/12:00pm 20.0 NNE 7 8 1022.3 - 0.0 - - 10 - - - -
30/11:30am 20.8 NNE 4 8 1022.8 - 0.0 - - 10 - - - -
30/11:00am 19.7 SSW 4 7 1023.3 - 0.0 - - 10 - - - -
30/10:30am 19.2 SSE 6 7 1023.6 - 0.0 - - 10 - - - -
30/10:00am 18.9 SSE 4 6 1023.9 - 0.0 - - 10 - - - -
30/09:30am 18.1 S 3 5 1023.9 - 0.0 - - 10 - - - -
30/09:00am 16.0 S 1 4 1023.9 - 0.0 - - 10 - - - -
30/08:30am 13.4 SW 2 4 1023.8 - 0.0 - - 10 - - - -
30/08:00am 12.0 CALM 0 0 1023.7 - 0.0 - - 10 - - - -
30/07:30am 10.2 S 3 4 1023.5 - 0.0 - - 10 - - - -
30/07:00am 8.5 S 3 3 1023.2 - 0.0 - - 10 - - - -
30/06:30am 8.5 S 4 5 1023.1 - 0.0 - - 10 - - - -
30/06:00am 8.0 SSW 1 5 1023.0 - 0.0 - - 10 - - - -
30/05:30am 8.5 CALM 0 0 1022.8 - 0.0 - - 10 - - - -
30/05:00am 8.5 SW 3 4 1022.8 - 0.0 - - 10 - - - -
30/04:30am 8.3 SW 4 4 1022.8 - 0.0 - - 10 - - - -
30/04:00am 7.8 S 3 4 1022.9 - 0.0 - - 10 - - - -
30/03:30am 8.6 SSW 3 4 1023.1 - 0.0 - - 10 - - - -
30/03:00am 9.0 SSW 4 4 1023.2 - 0.0 - - 10 - - - -
30/02:30am 8.6 SSE 2 3 1023.5 - 0.0 - - 10 - - - -
30/02:00am 9.8 SSW 3 5 1024.0 - 0.0 - - 10 - - - -
30/01:30am 8.7 SW 5 6 1024.1 - 0.0 - - 10 - - - -
30/01:00am 9.2 CALM 0 0 1024.3 - 0.0 - - 10 - - - -
30/12:30am 9.4 SSW 4 5 1024.4 - 0.0 - - 10 - - - -
30/12:00am 10.0 SW 4 5 1024.5 - 0.0 - - 10 - - - -
 
Date/Time
EST
Temp
°C
Wind Pressure Rain since
9am
mm
Weather Cloud Vis
km
Sea
Height
m
Swell
Dir  Spd
kts
Gust
kts
hPa Trend Height
m
Period
s
Dir
29/11:30pm 10.0 SSW 1 6 1024.8 - 0.0 - - 10 - - - -
29/11:00pm 9.9 S 5 6 1025.1 - 0.0 - - 10 - - - -
29/10:30pm 9.9 SW 5 6 1025.4 - 0.0 - - 10 - - - -
29/10:00pm 10.6 SW 5 6 1025.4 - 0.0 - - 10 - - - -
29/09:30pm 10.3 SW 3 5 1025.4 - 0.0 - - 10 - - - -
29/09:00pm 10.4 CALM 0 0 1025.5 - 0.0 - - 10 - - - -
29/08:30pm 11.7 CALM 0 0 1025.5 - 0.0 - - 10 - - - -
29/08:00pm 11.9 SW 4 6 1025.8 - 0.0 - - 10 - - - -

Other Formats:

Comma delimited format used in spreadsheet applications
http://www.bom.gov.au/fwo/IDQ60701/IDQ60701.94592.axf

JavaScript Object Notation format (JSON) in row-major order
http://www.bom.gov.au/fwo/IDQ60701/IDQ60701.94592.json